Terminal Aerodrome Forecast
Issued by NWS

Home | Current Version | Previous Version | Graphics & Text | Print | Product List | Glossary On
Versions: 1 2 3 4 5 6 7 8 9 10 11 12 13 14 15 16 17
167
FTUS43 KLSX 161608 AAA
TAFSUS
TAF AMD
KSUS 161608Z 1616/1712 29016G27KT P6SM OVC040
     FM161800 30017G27KT P6SM SCT050
     FM170000 30009KT P6SM FEW250
     FM170200 29004KT P6SM SKC=

USA.gov is the U.S. government's official web portal to all federal, state and local government web resources and services.